createdAt,value
2018-07-25T00:00:04.322Z,25.39
2018-07-25T00:02:32.367Z,25.36
2018-07-25T00:05:01.238Z,25.31
2018-07-25T00:07:29.285Z,25.26
2018-07-25T00:09:57.340Z,25.24
2018-07-25T00:12:25.768Z,25.19
2018-07-25T00:14:53.821Z,25.16
2018-07-25T00:17:21.892Z,25.14
2018-07-25T00:19:49.944Z,25.10
2018-07-25T00:22:18.020Z,25.07
2018-07-25T00:24:46.080Z,25.04
2018-07-25T00:27:14.125Z,25.02
2018-07-25T00:29:42.191Z,24.96
2018-07-25T00:32:10.696Z,24.95
2018-07-25T00:34:38.749Z,24.94
2018-07-25T00:37:07.064Z,24.89
2018-07-25T00:39:35.121Z,24.85
2018-07-25T00:42:03.175Z,24.83
2018-07-25T00:44:31.232Z,24.81
2018-07-25T00:46:59.296Z,24.78
2018-07-25T00:49:27.431Z,24.76
2018-07-25T00:51:55.468Z,24.75
2018-07-25T00:54:23.512Z,24.73
2018-07-25T00:56:51.556Z,24.72
2018-07-25T00:59:19.591Z,24.71
2018-07-25T01:01:47.647Z,24.68
2018-07-25T01:04:15.680Z,24.66
2018-07-25T01:06:43.752Z,24.65
2018-07-25T01:09:12.323Z,24.63
2018-07-25T01:11:40.676Z,24.61
2018-07-25T01:14:08.774Z,24.56
2018-07-25T01:16:36.836Z,24.54
2018-07-25T01:19:04.905Z,24.52
2018-07-25T01:21:32.980Z,24.50
2018-07-25T01:24:01.014Z,24.48
2018-07-25T01:26:29.052Z,24.46
2018-07-25T01:28:57.089Z,24.43
2018-07-25T01:31:25.132Z,24.43
2018-07-25T01:33:53.168Z,24.41
2018-07-25T01:36:21.217Z,24.40
2018-07-25T01:38:49.256Z,24.35
2018-07-25T01:41:17.325Z,24.32
2018-07-25T01:43:45.369Z,24.30
2018-07-25T01:46:13.412Z,24.28
2018-07-25T01:48:41.443Z,24.25
2018-07-25T01:51:09.510Z,24.20
2018-07-25T01:53:37.556Z,24.18
2018-07-25T01:56:05.937Z,24.17
2018-07-25T01:58:33.967Z,24.15
2018-07-25T02:01:02.040Z,24.11
2018-07-25T02:03:30.083Z,24.08
2018-07-25T02:05:58.142Z,24.03
2018-07-25T02:08:26.190Z,23.99
2018-07-25T02:10:54.228Z,23.96
2018-07-25T02:13:22.268Z,23.93
2018-07-25T02:15:50.334Z,23.91
2018-07-25T02:18:18.371Z,23.90
2018-07-25T02:20:46.456Z,23.86
2018-07-25T02:23:14.489Z,23.83
2018-07-25T02:25:42.552Z,23.79
2018-07-25T02:28:10.584Z,23.76
2018-07-25T02:30:38.632Z,23.73
2018-07-25T02:33:06.932Z,23.70
2018-07-25T02:35:34.964Z,23.68
2018-07-25T02:38:03.008Z,23.65
2018-07-25T02:40:31.084Z,23.59
2018-07-25T02:42:59.131Z,23.55
2018-07-25T02:45:31.228Z,23.51
2018-07-25T02:47:59.260Z,23.47
2018-07-25T02:50:27.292Z,23.41
2018-07-25T02:52:55.425Z,23.33
2018-07-25T02:55:23.476Z,23.34
2018-07-25T02:57:51.534Z,23.31
2018-07-25T03:00:19.577Z,23.28
2018-07-25T03:02:47.629Z,23.24
2018-07-25T03:05:15.672Z,23.20
2018-07-25T03:07:43.719Z,23.17
2018-07-25T03:10:11.776Z,23.16
2018-07-25T03:12:39.817Z,23.12
2018-07-25T03:15:07.880Z,23.13
2018-07-25T03:17:35.916Z,23.09
2018-07-25T03:20:03.984Z,23.06
2018-07-25T03:22:32.068Z,23.03
2018-07-25T03:25:00.127Z,23.00
2018-07-25T03:27:28.200Z,22.98
2018-07-25T03:29:56.251Z,22.96
2018-07-25T03:32:24.271Z,22.92
2018-07-25T03:34:52.299Z,22.90
2018-07-25T03:37:20.346Z,22.87
2018-07-25T03:39:48.396Z,22.83
2018-07-25T03:42:16.444Z,22.81
2018-07-25T03:44:44.519Z,22.80
2018-07-25T03:47:12.659Z,22.80
2018-07-25T03:49:40.703Z,22.78
2018-07-25T03:52:08.753Z,22.78
2018-07-25T03:54:36.792Z,22.76
2018-07-25T03:57:05.105Z,22.76
2018-07-25T03:59:33.148Z,22.77
2018-07-25T04:02:01.232Z,22.77
2018-07-25T04:04:29.255Z,22.77
2018-07-25T04:06:57.307Z,22.78
2018-07-25T04:09:25.359Z,22.82
2018-07-25T04:11:53.396Z,22.87
2018-07-25T04:14:21.441Z,22.90
2018-07-25T04:16:49.476Z,22.94
2018-07-25T04:19:17.532Z,23.00
2018-07-25T04:21:45.598Z,23.02
2018-07-25T04:24:13.635Z,23.06
2018-07-25T04:26:41.684Z,23.11
2018-07-25T04:29:09.716Z,23.12
2018-07-25T04:31:37.764Z,23.20
2018-07-25T04:34:05.844Z,23.26
2018-07-25T04:36:33.912Z,23.30
2018-07-25T04:39:01.972Z,23.36
2018-07-25T04:41:30.010Z,23.42
2018-07-25T04:43:58.045Z,23.48
2018-07-25T04:46:26.221Z,23.53
2018-07-25T04:48:54.128Z,23.61
2018-07-25T04:51:22.168Z,23.68
2018-07-25T04:53:50.247Z,23.78
2018-07-25T04:56:18.307Z,23.84
2018-07-25T04:58:46.340Z,23.94
2018-07-25T05:01:14.373Z,24.02
2018-07-25T05:03:42.416Z,24.11
2018-07-25T05:06:10.459Z,24.15
2018-07-25T05:08:38.580Z,24.20
2018-07-25T05:11:06.620Z,24.24
2018-07-25T05:13:34.665Z,24.27
2018-07-25T05:16:02.723Z,24.30
2018-07-25T05:18:30.776Z,24.32
2018-07-25T05:20:58.816Z,24.35
2018-07-25T05:23:26.888Z,24.37
2018-07-25T05:25:54.929Z,24.40
2018-07-25T05:28:22.979Z,24.44
2018-07-25T05:30:51.016Z,24.50
2018-07-25T05:33:19.075Z,24.55
2018-07-25T05:35:47.136Z,24.60
2018-07-25T05:38:15.210Z,24.68
2018-07-25T05:40:43.259Z,24.81
2018-07-25T05:43:11.323Z,24.91
2018-07-25T05:45:39.387Z,25.03
2018-07-25T05:48:07.529Z,25.17
2018-07-25T05:50:35.579Z,25.26
2018-07-25T05:53:03.636Z,25.33
2018-07-25T05:55:31.677Z,25.41
2018-07-25T05:57:59.736Z,25.49
2018-07-25T06:00:27.791Z,25.55
2018-07-25T06:02:55.912Z,25.60
2018-07-25T06:05:23.896Z,25.65
2018-07-25T06:07:51.956Z,25.69
2018-07-25T06:10:19.996Z,25.73
2018-07-25T06:12:48.047Z,25.82
2018-07-25T06:15:16.084Z,25.91
2018-07-25T06:17:44.164Z,25.97
2018-07-25T06:20:12.200Z,26.05
2018-07-25T06:22:40.268Z,26.16
2018-07-25T06:25:08.300Z,26.32
2018-07-25T06:27:36.413Z,26.49
2018-07-25T06:30:04.795Z,26.67
2018-07-25T06:32:32.845Z,26.84
2018-07-25T06:35:00.895Z,27.00
2018-07-25T06:37:28.928Z,27.18
2018-07-25T06:39:56.977Z,27.29
2018-07-25T06:42:25.004Z,27.33
2018-07-25T06:44:53.055Z,27.47
2018-07-25T06:47:21.117Z,27.65
2018-07-25T06:49:49.156Z,27.85
2018-07-25T06:52:17.252Z,28.03
2018-07-25T06:54:45.668Z,28.24
2018-07-25T06:57:13.736Z,28.45
2018-07-25T06:59:41.795Z,28.66
2018-07-25T07:02:09.987Z,28.85
2018-07-25T07:04:38.056Z,29.05
2018-07-25T07:07:06.113Z,29.27
2018-07-25T07:09:34.192Z,29.46
2018-07-25T07:12:02.488Z,29.66
2018-07-25T07:14:30.533Z,29.87
2018-07-25T07:16:58.605Z,30.00
2018-07-25T07:19:26.644Z,30.18
2018-07-25T07:21:54.966Z,30.30
2018-07-25T07:24:23.032Z,30.48
2018-07-25T07:26:51.089Z,30.70
2018-07-25T07:29:19.120Z,30.90
2018-07-25T07:31:47.176Z,31.14
2018-07-25T07:34:15.231Z,31.32
2018-07-25T07:36:43.288Z,31.54
2018-07-25T07:39:13.124Z,31.69
2018-07-25T07:41:41.463Z,31.87
2018-07-25T07:44:09.567Z,32.06
2018-07-25T07:46:37.827Z,32.26
2018-07-25T07:49:05.999Z,32.44
2018-07-25T07:51:34.044Z,32.60
2018-07-25T07:54:02.382Z,32.78
2018-07-25T07:56:30.408Z,33.02
2018-07-25T07:58:58.682Z,33.28
2018-07-25T08:01:26.752Z,33.48
2018-07-25T08:03:54.835Z,33.72
2018-07-25T08:06:22.875Z,34.00
2018-07-25T08:08:51.168Z,34.28
2018-07-25T08:11:20.153Z,34.55
2018-07-25T08:13:49.455Z,34.72
2018-07-25T08:16:17.926Z,34.91
2018-07-25T08:18:45.972Z,35.07
2018-07-25T08:21:14.576Z,35.17
2018-07-25T08:23:43.580Z,35.34
2018-07-25T08:26:11.639Z,35.45
2018-07-25T08:28:39.721Z,35.59
2018-07-25T08:31:07.836Z,35.75
2018-07-25T08:33:35.913Z,35.94
2018-07-25T08:36:04.045Z,36.02
2018-07-25T08:38:37.742Z,36.19
2018-07-25T08:41:06.280Z,36.40
2018-07-25T08:43:35.323Z,36.54
2018-07-25T08:46:03.371Z,36.75
2018-07-25T08:48:31.469Z,36.88
2018-07-25T08:50:59.523Z,37.14
2018-07-25T08:53:27.773Z,37.33
2018-07-25T08:55:55.855Z,37.48
2018-07-25T08:58:23.900Z,37.51
2018-07-25T09:00:51.981Z,37.57
2018-07-25T09:03:20.032Z,37.60
2018-07-25T09:05:48.084Z,37.65
2018-07-25T09:08:16.132Z,37.79
2018-07-25T09:10:44.189Z,37.87
2018-07-25T09:13:12.228Z,37.94
2018-07-25T09:15:40.303Z,38.20
2018-07-25T09:18:08.394Z,38.51
2018-07-25T09:20:36.440Z,38.72
2018-07-25T09:23:04.483Z,38.73
2018-07-25T09:25:32.953Z,38.80
2018-07-25T09:28:01.012Z,38.64
2018-07-25T09:30:29.383Z,38.63
2018-07-25T09:32:57.439Z,38.80
2018-07-25T09:35:25.489Z,38.74
2018-07-25T09:37:53.572Z,38.95
2018-07-25T09:40:21.621Z,39.17
2018-07-25T09:42:49.692Z,39.10
2018-07-25T09:45:17.756Z,39.08
2018-07-25T09:47:45.812Z,39.02
2018-07-25T09:50:13.872Z,38.89
2018-07-25T09:52:41.935Z,39.01
2018-07-25T09:55:10.799Z,39.30
2018-07-25T09:57:38.915Z,39.57
2018-07-25T10:00:09.608Z,39.74
2018-07-25T10:02:38.148Z,39.74
2018-07-25T10:05:06.457Z,39.92
2018-07-25T10:07:34.535Z,40.03
2018-07-25T10:10:02.611Z,40.11
2018-07-25T10:12:30.664Z,40.03
2018-07-25T10:14:58.755Z,40.08
2018-07-25T10:17:26.847Z,40.25
2018-07-25T10:19:54.908Z,40.34
2018-07-25T10:22:22.956Z,40.36
2018-07-25T10:24:51.036Z,40.52
2018-07-25T10:27:19.119Z,40.67
2018-07-25T10:29:47.339Z,40.83
2018-07-25T10:32:15.411Z,41.07
2018-07-25T10:34:43.500Z,41.02
2018-07-25T10:37:11.576Z,41.03
2018-07-25T10:39:39.664Z,41.25
2018-07-25T10:42:07.936Z,41.39
2018-07-25T10:44:36.000Z,41.54
2018-07-25T10:47:04.051Z,41.61
2018-07-25T10:49:32.122Z,41.43
2018-07-25T10:52:00.197Z,41.21
2018-07-25T10:54:28.248Z,41.34
2018-07-25T10:56:56.324Z,41.52
2018-07-25T10:59:24.400Z,41.86
2018-07-25T11:01:52.496Z,42.02
2018-07-25T11:04:20.612Z,41.89
2018-07-25T11:06:48.703Z,41.98
2018-07-25T11:09:16.773Z,41.97
2018-07-25T11:11:44.835Z,42.04
2018-07-25T11:14:12.940Z,41.91
2018-07-25T11:16:41.016Z,41.80
2018-07-25T11:19:09.067Z,42.08
2018-07-25T11:21:37.124Z,42.27
2018-07-25T11:24:05.264Z,41.96
2018-07-25T11:26:33.357Z,41.55
2018-07-25T11:29:01.415Z,41.34
2018-07-25T11:31:29.497Z,40.94
2018-07-25T11:33:57.561Z,40.64
2018-07-25T11:36:25.612Z,40.37
2018-07-25T11:38:53.671Z,40.17
2018-07-25T11:41:21.721Z,39.94
2018-07-25T11:43:49.884Z,39.60
2018-07-25T11:46:18.024Z,39.34
2018-07-25T11:48:46.073Z,39.19
2018-07-25T11:51:14.152Z,39.06
2018-07-25T11:53:42.200Z,38.93
2018-07-25T11:56:10.276Z,38.65
2018-07-25T11:58:38.324Z,38.51
2018-07-25T12:01:06.755Z,38.35
2018-07-25T12:03:34.792Z,38.24
2018-07-25T12:06:02.863Z,38.14
2018-07-25T12:08:30.916Z,38.00
2018-07-25T12:10:58.976Z,37.84
2018-07-25T12:13:27.044Z,37.78
2018-07-25T12:15:55.120Z,37.96
2018-07-25T12:18:23.185Z,37.85
2018-07-25T12:20:51.228Z,37.75
2018-07-25T12:23:19.284Z,37.60
2018-07-25T12:25:47.360Z,37.45
2018-07-25T12:28:15.551Z,37.38
2018-07-25T12:30:43.602Z,37.64
2018-07-25T12:33:11.732Z,37.64
2018-07-25T12:35:39.788Z,37.53
2018-07-25T12:38:07.844Z,37.34
2018-07-25T12:40:35.936Z,37.30
2018-07-25T12:43:04.017Z,37.36
2018-07-25T12:45:32.088Z,37.42
2018-07-25T12:48:00.155Z,37.46
2018-07-25T12:50:28.203Z,37.87
2018-07-25T12:52:56.261Z,38.48
2018-07-25T12:55:24.313Z,39.05
2018-07-25T12:57:52.388Z,39.55
2018-07-25T13:00:20.448Z,39.88
2018-07-25T13:02:48.553Z,39.98
2018-07-25T13:05:16.571Z,39.99
2018-07-25T13:07:44.628Z,40.15
2018-07-25T13:10:12.711Z,40.30
2018-07-25T13:12:40.776Z,40.35
2018-07-25T13:15:08.864Z,40.24
2018-07-25T13:17:36.933Z,39.83
2018-07-25T13:20:05.355Z,39.38
2018-07-25T13:22:33.452Z,38.98
2018-07-25T13:25:01.485Z,38.65
2018-07-25T13:27:29.600Z,38.44
2018-07-25T13:29:57.668Z,38.27
2018-07-25T13:32:25.724Z,38.08
2018-07-25T13:34:53.796Z,37.91
2018-07-25T13:37:21.867Z,37.77
2018-07-25T13:39:50.008Z,37.64
2018-07-25T13:42:18.104Z,37.58
2018-07-25T13:44:46.177Z,37.55
2018-07-25T13:47:14.270Z,37.52
2018-07-25T13:49:42.303Z,37.49
2018-07-25T13:52:10.412Z,37.50
2018-07-25T13:54:38.500Z,37.49
2018-07-25T13:57:06.567Z,37.48
2018-07-25T13:59:34.612Z,37.44
2018-07-25T14:02:02.700Z,37.46
2018-07-25T14:04:30.765Z,37.44
2018-07-25T14:06:58.824Z,37.38
2018-07-25T14:09:26.885Z,37.29
2018-07-25T14:11:54.974Z,37.19
2018-07-25T14:14:23.032Z,37.11
2018-07-25T14:16:51.136Z,37.02
2018-07-25T14:19:19.249Z,36.76
2018-07-25T14:21:47.312Z,36.50
2018-07-25T14:24:15.427Z,36.23
2018-07-25T14:26:43.456Z,35.96
2018-07-25T14:29:11.594Z,35.73
2018-07-25T14:31:39.572Z,35.33
2018-07-25T14:34:07.658Z,35.04
2018-07-25T14:36:35.697Z,34.78
2018-07-25T14:39:04.168Z,34.56
2018-07-25T14:41:32.241Z,34.39
2018-07-25T14:44:00.293Z,34.17
2018-07-25T14:46:28.328Z,33.95
2018-07-25T14:48:56.407Z,33.79
2018-07-25T14:51:24.572Z,33.75
2018-07-25T14:53:52.503Z,33.58
2018-07-25T14:56:20.536Z,33.35
2018-07-25T14:58:48.568Z,33.19
2018-07-25T15:01:16.671Z,33.08
2018-07-25T15:03:44.697Z,32.95
2018-07-25T15:06:12.781Z,32.85
2018-07-25T15:08:40.854Z,32.84
2018-07-25T15:11:08.913Z,32.87
2018-07-25T15:13:36.989Z,32.86
2018-07-25T15:16:05.121Z,32.85
2018-07-25T15:18:33.184Z,32.71
2018-07-25T15:21:01.232Z,32.57
2018-07-25T15:23:40.496Z,32.45
2018-07-25T15:26:08.512Z,32.43
2018-07-25T15:28:36.588Z,32.32
2018-07-25T15:31:04.660Z,32.12
2018-07-25T15:33:32.749Z,32.03
2018-07-25T15:36:00.808Z,31.86
2018-07-25T15:38:28.867Z,31.53
2018-07-25T15:40:56.939Z,31.38
2018-07-25T15:43:25.085Z,31.31
2018-07-25T15:45:53.136Z,31.29
2018-07-25T15:48:21.211Z,31.17
2018-07-25T15:50:49.244Z,31.15
2018-07-25T15:53:17.308Z,31.12
2018-07-25T15:55:45.341Z,31.08
2018-07-25T15:58:13.401Z,30.81
2018-07-25T16:00:41.457Z,30.73
2018-07-25T16:03:09.492Z,30.75
2018-07-25T16:05:37.743Z,30.66
2018-07-25T16:08:05.863Z,30.66
2018-07-25T16:10:33.912Z,30.56
2018-07-25T16:13:01.953Z,30.54
2018-07-25T16:15:30.036Z,30.38
2018-07-25T16:17:58.307Z,30.38
2018-07-25T16:20:26.379Z,30.50
2018-07-25T16:22:54.443Z,30.55
2018-07-25T16:25:22.500Z,30.60
2018-07-25T16:27:50.571Z,30.65
2018-07-25T16:30:18.652Z,30.73
2018-07-25T16:32:46.704Z,30.79
2018-07-25T16:35:14.800Z,30.86
2018-07-25T16:37:42.840Z,30.83
2018-07-25T16:40:10.880Z,30.81
2018-07-25T16:42:38.951Z,30.84
2018-07-25T16:45:07.009Z,30.86
2018-07-25T16:47:35.071Z,30.80
2018-07-25T16:50:03.128Z,30.80
2018-07-25T16:52:31.172Z,30.79
2018-07-25T16:54:59.232Z,30.80
2018-07-25T16:57:27.306Z,30.85
2018-07-25T16:59:55.352Z,30.88
2018-07-25T17:02:23.392Z,30.84
2018-07-25T17:04:51.443Z,30.78
2018-07-25T17:07:19.497Z,30.85
2018-07-25T17:09:47.548Z,30.87
2018-07-25T17:12:15.594Z,30.94
2018-07-25T17:14:43.725Z,30.99
2018-07-25T17:17:11.703Z,31.01
2018-07-25T17:19:39.780Z,30.98
2018-07-25T17:22:07.833Z,30.94
2018-07-25T17:24:35.891Z,30.95
2018-07-25T17:27:03.923Z,31.00
2018-07-25T17:29:32.007Z,30.93
2018-07-25T17:32:00.084Z,30.94
2018-07-25T17:34:28.157Z,31.05
2018-07-25T17:36:56.228Z,31.08
2018-07-25T17:39:24.272Z,31.09
2018-07-25T17:41:52.360Z,31.11
2018-07-25T17:44:20.412Z,31.17
2018-07-25T17:46:48.490Z,31.22
2018-07-25T17:49:16.497Z,31.26
2018-07-25T17:51:44.573Z,31.26
2018-07-25T17:54:12.611Z,31.34
2018-07-25T17:56:40.660Z,31.37
2018-07-25T17:59:08.731Z,31.34
2018-07-25T18:01:36.792Z,31.17
2018-07-25T18:04:04.884Z,31.16
2018-07-25T18:06:32.975Z,31.24
2018-07-25T18:09:01.028Z,31.26
2018-07-25T18:11:29.108Z,31.27
2018-07-25T18:14:02.495Z,31.31
2018-07-25T18:16:30.556Z,31.36
2018-07-25T18:18:58.631Z,31.37
2018-07-25T18:21:26.685Z,31.28
2018-07-25T18:23:54.740Z,31.28
2018-07-25T18:26:22.824Z,31.28
2018-07-25T18:28:50.867Z,31.25
2018-07-25T18:31:18.920Z,31.23
2018-07-25T18:33:46.986Z,31.16
2018-07-25T18:36:15.049Z,31.10
2018-07-25T18:38:43.099Z,30.98
2018-07-25T18:41:11.163Z,30.96
2018-07-25T18:43:39.205Z,30.95
2018-07-25T18:46:07.311Z,30.85
2018-07-25T18:48:35.360Z,30.76
2018-07-25T18:51:03.449Z,30.76
2018-07-25T18:53:31.490Z,30.65
2018-07-25T18:55:59.535Z,30.62
2018-07-25T18:58:27.581Z,30.56
2018-07-25T19:00:55.646Z,30.49
2018-07-25T19:03:23.672Z,30.47
2018-07-25T19:05:51.726Z,30.47
2018-07-25T19:08:19.818Z,30.46
2018-07-25T19:10:47.856Z,30.43
2018-07-25T19:13:21.417Z,30.40
2018-07-25T19:15:49.503Z,30.38
2018-07-25T19:18:17.553Z,30.37
2018-07-25T19:20:45.578Z,30.36
2018-07-25T19:23:13.649Z,30.35
2018-07-25T19:25:41.711Z,30.31
2018-07-25T19:28:09.756Z,30.25
2018-07-25T19:30:37.788Z,30.19
2018-07-25T19:33:05.868Z,30.12
2018-07-25T19:35:33.935Z,30.05
2018-07-25T19:38:01.960Z,29.97
2018-07-25T19:40:30.015Z,29.86
2018-07-25T19:42:58.064Z,29.77
2018-07-25T19:45:26.124Z,29.68
2018-07-25T19:47:54.196Z,29.60
2018-07-25T19:50:22.230Z,29.54
2018-07-25T19:52:50.272Z,29.47
2018-07-25T19:55:18.315Z,29.37
2018-07-25T19:57:46.364Z,29.29
2018-07-25T20:00:16.551Z,29.22
2018-07-25T20:02:42.498Z,29.11
2018-07-25T20:05:10.540Z,29.03
2018-07-25T20:07:38.585Z,28.95
2018-07-25T20:10:06.649Z,28.88
2018-07-25T20:12:34.717Z,28.77
2018-07-25T20:15:08.068Z,28.70
2018-07-25T20:17:36.101Z,28.61
2018-07-25T20:20:04.435Z,28.54
2018-07-25T20:22:32.505Z,28.47
2018-07-25T20:25:00.532Z,28.39
2018-07-25T20:27:28.596Z,28.31
2018-07-25T20:29:56.648Z,28.20
2018-07-25T20:32:24.692Z,28.14
2018-07-25T20:34:52.751Z,28.07
2018-07-25T20:37:20.913Z,28.01
2018-07-25T20:39:48.955Z,27.93
2018-07-25T20:42:17.067Z,27.85
2018-07-25T20:44:45.073Z,27.76
2018-07-25T20:47:13.152Z,27.64
2018-07-25T20:49:41.212Z,27.57
2018-07-25T20:52:09.245Z,27.50
2018-07-25T20:54:37.283Z,27.44
2018-07-25T20:57:05.330Z,27.38
2018-07-25T20:59:33.368Z,27.34
2018-07-25T21:02:01.428Z,27.27
2018-07-25T21:04:29.464Z,27.20
2018-07-25T21:06:57.520Z,27.15
2018-07-25T21:09:25.555Z,27.07
2018-07-25T21:11:53.612Z,27.03
2018-07-25T21:14:21.640Z,26.99
2018-07-25T21:16:49.689Z,26.92
2018-07-25T21:19:17.738Z,26.86
2018-07-25T21:21:45.804Z,26.80
2018-07-25T21:24:14.676Z,26.73
2018-07-25T21:26:42.713Z,26.64
2018-07-25T21:29:10.753Z,26.57
2018-07-25T21:31:38.789Z,26.49
2018-07-25T21:34:06.856Z,26.40
2018-07-25T21:36:34.884Z,26.33
2018-07-25T21:39:02.986Z,26.28
2018-07-25T21:41:31.014Z,26.23
2018-07-25T21:43:59.055Z,26.17
2018-07-25T21:46:27.089Z,26.13
2018-07-25T21:48:55.128Z,26.09
2018-07-25T21:51:23.155Z,26.05
2018-07-25T21:53:51.196Z,26.00
2018-07-25T21:56:19.271Z,25.94
2018-07-25T21:58:47.280Z,25.90
2018-07-25T22:01:17.723Z,25.83
2018-07-25T22:03:46.088Z,25.78
2018-07-25T22:06:14.579Z,25.71
2018-07-25T22:08:42.628Z,25.65
2018-07-25T22:11:10.720Z,25.59
2018-07-25T22:13:42.979Z,25.53
2018-07-25T22:16:11.130Z,25.48
2018-07-25T22:18:39.200Z,25.43
2018-07-25T22:21:07.308Z,25.39
2018-07-25T22:23:35.356Z,25.35
2018-07-25T22:26:03.405Z,25.31
2018-07-25T22:28:31.476Z,25.28
2018-07-25T22:30:59.517Z,25.25
2018-07-25T22:33:27.612Z,25.22
2018-07-25T22:35:55.648Z,25.17
2018-07-25T22:38:23.706Z,25.13
2018-07-25T22:40:51.752Z,25.09
2018-07-25T22:43:19.828Z,25.04
2018-07-25T22:45:47.866Z,24.99
2018-07-25T22:48:15.909Z,24.93
2018-07-25T22:50:43.987Z,24.89
2018-07-25T22:53:12.031Z,24.85
2018-07-25T22:55:40.080Z,24.82
2018-07-25T22:58:08.132Z,24.76
2018-07-25T23:00:36.452Z,24.72
2018-07-25T23:03:04.519Z,24.67
2018-07-25T23:05:32.580Z,24.62
2018-07-25T23:08:00.644Z,24.61
2018-07-25T23:10:28.728Z,24.59
2018-07-25T23:12:56.788Z,24.55
2018-07-25T23:15:24.840Z,24.52
2018-07-25T23:17:52.912Z,24.48
2018-07-25T23:20:21.008Z,24.44
2018-07-25T23:23:00.188Z,24.40
2018-07-25T23:25:28.620Z,24.34
2018-07-25T23:27:57.816Z,24.29
2018-07-25T23:30:27.022Z,24.25
2018-07-25T23:32:55.064Z,24.21
2018-07-25T23:35:23.155Z,24.16
2018-07-25T23:37:51.755Z,24.11
2018-07-25T23:40:20.127Z,24.09
2018-07-25T23:42:48.796Z,24.04
2018-07-25T23:45:16.931Z,24.02
2018-07-25T23:47:44.964Z,23.98
2018-07-25T23:50:13.018Z,23.96
2018-07-25T23:52:41.052Z,23.92
2018-07-25T23:55:09.568Z,23.89
2018-07-25T23:57:37.596Z,23.88
